Time;durP1;ratioP1;P1;durP2;ratioP2;P2;SDS_P1;SDS_P2;PMS_P1;PMS_P2;Temp;Humidity;BMP_temperature;BMP_pressure;BME280_temperature;BME280_humidity;BME280_pressure;Samples;Min_cycle;Max_cycle;Signal;HPM_P1;HPM_P2
2022/12/17 13:06:40;;;;;;;9.30;6.82;;;8.00;99.90;;;;;;5094824;28;20618;-78
2022/12/17 13:09:21;;;;;;;8.77;7.10;;;8.00;99.90;;;;;;5091394;28;20023;-78
2022/12/17 13:11:59;;;;;;;8.52;7.07;;;8.10;99.90;;;;;;5089359;28;20488;-78
2022/12/17 13:14:48;;;;;;;7.80;6.43;;;8.20;99.90;;;;;;5095244;28;20021;-78
2022/12/17 13:17:14;;;;;;;7.82;5.68;;;8.10;99.90;;;;;;5075134;28;20115;-78
2022/12/17 13:19:56;;;;;;;7.18;6.47;;;8.10;99.90;;;;;;5090376;28;20488;-78
2022/12/17 13:22:22;;;;;;;6.38;5.70;;;8.10;99.90;;;;;;5095337;28;20028;-78
2022/12/17 13:24:51;;;;;;;7.97;6.35;;;8.10;99.90;;;;;;5078679;28;20108;-78
2022/12/17 13:27:32;;;;;;;7.10;5.78;;;8.20;99.90;;;;;;5078510;28;20084;-78
2022/12/17 13:30:17;;;;;;;6.47;5.65;;;8.10;99.90;;;;;;5088040;28;20067;-77
2022/12/17 13:32:56;;;;;;;6.95;6.22;;;8.20;99.90;;;;;;5092935;28;20055;-78
2022/12/17 13:36:00;;;;;;;11.90;6.20;;;8.10;99.90;;;;;;5092649;28;20046;-76
2022/12/17 13:38:40;;;;;;;8.15;6.32;;;8.00;99.90;;;;;;5062366;28;20032;-75
2022/12/17 13:41:15;;;;;;;10.70;6.30;;;8.00;99.90;;;;;;5073867;28;20061;-76
2022/12/17 13:43:55;;;;;;;8.55;5.88;;;8.00;99.90;;;;;;5097000;28;20408;-77
2022/12/17 13:46:40;;;;;;;7.47;5.53;;;8.00;99.90;;;;;;5074486;28;20032;-76
2022/12/17 13:49:25;;;;;;;6.75;5.90;;;7.90;99.90;;;;;;5088933;28;20056;-76
2022/12/17 13:52:03;;;;;;;8.30;5.25;;;7.90;99.90;;;;;;5073856;28;20032;-77
2022/12/17 13:54:28;;;;;;;5.97;5.35;;;8.00;99.90;;;;;;5093915;28;20032;-76
2022/12/17 13:57:05;;;;;;;6.00;5.07;;;8.00;99.90;;;;;;5075836;28;20020;-78
2022/12/17 13:59:30;;;;;;;7.82;5.43;;;7.90;99.90;;;;;;5074749;28;20024;-76
2022/12/17 14:01:56;;;;;;;5.63;4.90;;;8.10;99.90;;;;;;5074694;28;20058;-77
2022/12/17 14:04:25;;;;;;;7.60;6.38;;;8.10;99.90;;;;;;5076847;28;20029;-75
2022/12/17 14:06:54;;;;;;;8.98;6.80;;;8.10;99.90;;;;;;5091232;28;20078;-75
2022/12/17 14:09:23;;;;;;;6.68;5.55;;;8.10;99.90;;;;;;5072047;28;20480;-75
2022/12/17 14:14:39;;;;;;;7.18;5.40;;;7.90;99.90;;;;;;5092975;28;20035;-75
2022/12/17 14:17:05;;;;;;;6.15;4.65;;;7.80;99.90;;;;;;5077445;28;20401;-78
2022/12/17 14:19:32;;;;;;;6.63;5.15;;;7.70;99.90;;;;;;5088166;28;20063;-75
2022/12/17 14:21:59;;;;;;;7.38;6.07;;;7.70;99.90;;;;;;5090970;28;20084;-75
2022/12/17 14:24:28;;;;;;;8.00;5.97;;;7.70;99.90;;;;;;5093322;28;20044;-77
2022/12/17 14:26:56;;;;;;;8.30;5.68;;;7.70;99.90;;;;;;5074487;28;20020;-78
2022/12/17 14:29:25;;;;;;;6.18;5.32;;;7.60;99.90;;;;;;5087718;28;20127;-77
2022/12/17 14:32:01;;;;;;;15.73;8.48;;;7.70;99.90;;;;;;5093625;28;20023;-77
2022/12/17 14:34:28;;;;;;;8.48;6.53;;;7.70;99.90;;;;;;5072790;28;20024;-77
2022/12/17 14:36:59;;;;;;;33.03;10.73;;;7.70;99.90;;;;;;5073078;28;20069;-78
2022/12/17 14:39:28;;;;;;;6.35;5.40;;;7.80;99.90;;;;;;5091118;28;20063;-77
2022/12/17 14:42:24;;;;;;;6.75;5.30;;;7.80;99.90;;;;;;5088784;28;20036;-77
2022/12/17 14:44:58;;;;;;;4.97;4.47;;;7.80;99.90;;;;;;5089206;28;20555;-77
2022/12/17 14:47:33;;;;;;;6.35;4.07;;;7.80;99.90;;;;;;5071750;28;20020;-77
2022/12/17 14:50:05;;;;;;;5.18;4.65;;;7.80;99.90;;;;;;5072810;28;20495;-76
2022/12/17 14:52:40;;;;;;;5.85;5.25;;;7.80;99.90;;;;;;5093842;28;20027;-77
2022/12/17 14:55:38;;;;;;;6.18;4.25;;;7.80;99.90;;;;;;5088683;28;20028;-77
2022/12/17 14:58:10;;;;;;;4.90;4.40;;;7.80;99.90;;;;;;5092602;28;20020;-77
2022/12/17 15:00:56;;;;;;;6.28;4.70;;;7.80;99.90;;;;;;5068956;28;20063;-78
2022/12/17 15:03:26;;;;;;;4.57;3.67;;;7.80;99.90;;;;;;5083174;28;20031;-77
2022/12/17 15:06:04;;;;;;;5.68;4.35;;;7.80;99.90;;;;;;5089291;28;20117;-77
2022/12/17 15:08:35;;;;;;;5.72;4.50;;;7.70;99.90;;;;;;5087461;28;20024;-77
2022/12/17 15:11:01;;;;;;;7.38;4.47;;;7.70;99.90;;;;;;5088620;28;20039;-79
2022/12/17 15:13:27;;;;;;;7.90;5.13;;;7.50;99.90;;;;;;5067821;28;20034;-78
2022/12/17 15:15:53;;;;;;;6.93;5.38;;;7.60;99.90;;;;;;5089642;28;20112;-79
2022/12/17 15:18:19;;;;;;;6.03;5.15;;;7.60;99.90;;;;;;5088891;28;20024;-79
2022/12/17 15:20:45;;;;;;;5.38;4.57;;;7.70;99.90;;;;;;5082282;28;20032;-78
2022/12/17 15:23:15;;;;;;;5.95;4.68;;;7.60;99.90;;;;;;5089862;28;20019;-79
2022/12/17 15:25:41;;;;;;;5.85;4.38;;;7.60;99.90;;;;;;5081405;28;20408;-79
2022/12/17 15:28:08;;;;;;;5.97;5.38;;;7.60;99.90;;;;;;5067239;28;20048;-79
2022/12/17 15:30:34;;;;;;;5.97;4.90;;;7.60;99.90;;;;;;5067839;28;20119;-76
2022/12/17 15:33:00;;;;;;;6.60;5.07;;;7.50;99.90;;;;;;5090412;28;20051;-78
2022/12/17 15:35:26;;;;;;;7.18;5.90;;;7.50;99.90;;;;;;5070410;28;20036;-78
2022/12/17 15:37:52;;;;;;;5.47;4.80;;;7.50;99.90;;;;;;5090248;28;20073;-77
2022/12/17 15:40:18;;;;;;;7.00;5.50;;;7.40;99.90;;;;;;5075493;28;20044;-78
2022/12/17 15:45:30;;;;;;;7.25;5.70;;;7.40;99.90;;;;;;5092764;28;20043;-78
2022/12/17 15:47:56;;;;;;;5.80;5.20;;;7.40;99.90;;;;;;5095237;28;20027;-77
2022/12/17 15:50:22;;;;;;;7.45;5.68;;;7.30;99.90;;;;;;5087512;28;20408;-77
2022/12/17 15:52:48;;;;;;;6.85;5.95;;;7.20;99.90;;;;;;5094080;28;20027;-78
2022/12/17 15:55:15;;;;;;;7.72;6.00;;;7.20;99.90;;;;;;5075071;28;20025;-77
2022/12/17 15:57:41;;;;;;;7.10;5.53;;;7.10;99.90;;;;;;5093552;28;20012;-77
2022/12/17 16:00:08;;;;;;;7.30;6.30;;;7.00;99.90;;;;;;5088783;28;20023;-77
2022/12/17 16:02:34;;;;;;;7.47;5.70;;;6.90;99.90;;;;;;5096340;28;20483;-77
2022/12/17 16:04:59;;;;;;;7.97;5.80;;;6.90;99.90;;;;;;5095776;28;20054;-78
2022/12/17 16:07:25;;;;;;;7.68;6.35;;;6.90;99.90;;;;;;5075593;28;20434;-78
2022/12/17 16:09:51;;;;;;;6.55;5.93;;;6.80;99.90;;;;;;5077578;28;20501;-77
2022/12/17 16:12:17;;;;;;;180.95;69.82;;;6.80;99.90;;;;;;5097024;28;20392;-78
2022/12/17 16:14:43;;;;;;;11.80;7.10;;;6.80;99.90;;;;;;5096076;28;20447;-78
2022/12/17 16:17:09;;;;;;;239.45;86.85;;;6.70;99.90;;;;;;5076684;28;20519;-79
2022/12/17 16:19:36;;;;;;;401.60;163.23;;;6.70;99.90;;;;;;5075322;28;20036;-79
2022/12/17 16:22:02;;;;;;;227.25;89.68;;;6.70;99.90;;;;;;5094050;28;20519;-78
2022/12/17 16:24:27;;;;;;;74.07;36.83;;;6.70;99.90;;;;;;5095905;28;20048;-78
2022/12/17 16:26:53;;;;;;;609.15;293.83;;;6.70;99.90;;;;;;5093547;28;20115;-78
2022/12/17 16:29:19;;;;;;;192.35;79.00;;;6.70;99.90;;;;;;5093087;28;20047;-77
2022/12/17 16:31:45;;;;;;;112.93;44.17;;;6.70;99.90;;;;;;5092409;28;20020;-76
2022/12/17 16:34:12;;;;;;;12.20;8.73;;;6.70;99.90;;;;;;5096850;28;20034;-77
2022/12/17 16:36:38;;;;;;;94.88;38.95;;;6.60;99.90;;;;;;5077426;28;20494;-77
2022/12/17 16:39:04;;;;;;;27.98;13.40;;;6.50;99.90;;;;;;5094620;28;20056;-77
2022/12/17 16:41:31;;;;;;;9.77;7.60;;;6.40;99.90;;;;;;5075571;28;20028;-78
2022/12/17 16:43:57;;;;;;;119.40;56.13;;;6.40;99.90;;;;;;5097666;28;20104;-81
2022/12/17 16:46:32;;;;;;;16.42;12.02;;;6.40;99.90;;;;;;5094157;28;20024;-78
2022/12/17 16:49:04;;;;;;;11.95;8.98;;;6.30;99.90;;;;;;5083575;28;20025;-80
2022/12/17 16:51:30;;;;;;;8.45;6.82;;;6.20;99.90;;;;;;5091092;28;20017;-81
2022/12/17 16:53:57;;;;;;;15.55;9.70;;;6.10;99.90;;;;;;5090315;28;20020;-81
2022/12/17 16:56:26;;;;;;;10.35;7.75;;;6.10;99.90;;;;;;5091836;28;20476;-80
2022/12/17 16:58:53;;;;;;;9.43;7.10;;;6.00;99.90;;;;;;5081432;28;20027;-81
2022/12/17 17:01:27;;;;;;;7.63;6.63;;;6.00;99.90;;;;;;5088659;28;20027;-80
2022/12/17 17:03:53;;;;;;;9.70;7.25;;;6.00;99.90;;;;;;5093567;28;20041;-81
2022/12/17 17:06:57;;;;;;;9.63;8.57;;;6.00;99.90;;;;;;5070403;28;20029;-81
2022/12/17 17:09:24;;;;;;;11.45;9.57;;;6.00;99.90;;;;;;5087930;28;20071;-81
2022/12/17 17:11:50;;;;;;;29.10;22.38;;;6.00;99.90;;;;;;5092626;28;20016;-81
2022/12/17 17:14:16;;;;;;;18.90;14.77;;;6.10;99.90;;;;;;5089084;28;20073;-81
2022/12/17 17:16:42;;;;;;;37.28;26.15;;;6.10;99.90;;;;;;5092151;28;20062;-81
2022/12/17 17:19:07;;;;;;;86.20;57.72;;;6.00;99.90;;;;;;5087781;28;20024;-81
2022/12/17 17:21:38;;;;;;;47.85;33.70;;;6.10;99.90;;;;;;5095122;28;20016;-81
2022/12/17 17:24:14;;;;;;;;;;;6.10;99.90;;;;;;5095512;28;20027;-81
2022/12/17 17:26:40;;;;;;;11.07;9.93;;;6.00;99.90;;;;;;5093707;28;19912;-81
2022/12/17 17:29:07;;;;;;;41.15;28.63;;;6.00;99.90;;;;;;5084509;28;20028;-81
2022/12/17 17:31:34;;;;;;;37.42;28.65;;;5.90;99.90;;;;;;5069740;28;20059;-81
2022/12/17 17:34:09;;;;;;;17.73;12.55;;;5.80;99.90;;;;;;5095614;28;20095;-81
2022/12/17 17:36:35;;;;;;;45.72;36.33;;;5.80;99.90;;;;;;5092493;28;20070;-81
2022/12/17 17:39:01;;;;;;;21.13;16.27;;;5.80;99.90;;;;;;5091347;28;20062;-81
2022/12/17 17:41:29;;;;;;;94.85;62.58;;;5.70;99.90;;;;;;5092432;28;20040;-81
2022/12/17 17:43:57;;;;;;;11.88;10.25;;;5.60;99.90;;;;;;5096266;28;20024;-81
2022/12/17 17:46:24;;;;;;;41.47;30.65;;;5.50;99.90;;;;;;5071956;28;20043;-80
2022/12/17 17:48:51;;;;;;;16.42;10.93;;;5.30;99.90;;;;;;5075334;28;20031;-80
2022/12/17 17:51:20;;;;;;;16.23;13.00;;;5.30;99.90;;;;;;5091023;28;20020;-79
2022/12/17 17:53:48;;;;;;;15.60;9.82;;;5.20;99.90;;;;;;5094174;28;20077;-80
2022/12/17 17:56:19;;;;;;;12.60;9.43;;;5.20;99.90;;;;;;5074377;28;20034;-80
2022/12/17 17:58:48;;;;;;;13.27;11.27;;;5.20;99.90;;;;;;5091531;28;20028;-80
2022/12/17 18:01:25;;;;;;;15.95;13.45;;;5.10;99.90;;;;;;5088385;28;20073;-80
2022/12/17 18:03:54;;;;;;;52.08;41.08;;;5.20;99.90;;;;;;5095925;28;20031;-80
2022/12/17 18:06:20;;;;;;;11.18;10.05;;;5.20;99.90;;;;;;5091477;28;20032;-80
2022/12/17 18:08:46;;;;;;;13.70;11.60;;;5.20;99.90;;;;;;5092920;28;20428;-80
2022/12/17 18:11:14;;;;;;;16.30;13.27;;;5.30;99.90;;;;;;5074654;28;20426;-80
2022/12/17 18:13:55;;;;;;;51.63;35.15;;;5.30;99.90;;;;;;5096804;28;20454;-80
2022/12/17 18:16:36;;;;;;;57.45;40.33;;;5.30;99.90;;;;;;5094086;28;20119;-81
2022/12/17 18:19:11;;;;;;;10.55;9.52;;;5.40;99.90;;;;;;5091599;28;20020;-80
2022/12/17 18:21:37;;;;;;;16.27;12.80;;;5.40;99.90;;;;;;5072258;28;20043;-80
2022/12/17 18:24:10;;;;;;;33.40;23.48;;;5.40;99.90;;;;;;5074248;28;20039;-80
2022/12/17 18:26:41;;;;;;;16.35;11.43;;;5.40;99.90;;;;;;5074370;28;20028;-80
2022/12/17 18:29:27;;;;;;;34.50;23.20;;;5.50;99.90;;;;;;5088953;28;20035;-80
2022/12/17 18:31:54;;;;;;;28.08;19.52;;;5.50;99.90;;;;;;5092762;28;20447;-81
2022/12/17 18:34:25;;;;;;;24.73;18.48;;;5.60;99.90;;;;;;5092512;28;20062;-80
2022/12/17 18:36:51;;;;;;;14.02;11.40;;;5.60;99.90;;;;;;5074160;28;20055;-80
2022/12/17 18:39:22;;;;;;;24.13;16.08;;;5.60;99.90;;;;;;5088491;28;20599;-80
2022/12/17 18:44:37;;;;;;;19.58;14.55;;;5.60;99.90;;;;;;5092660;28;20055;-80
2022/12/17 18:47:03;;;;;;;9.30;8.30;;;5.60;99.90;;;;;;5092773;28;20017;-80
2022/12/17 18:49:29;;;;;;;15.60;11.50;;;5.60;99.90;;;;;;5072096;28;20033;-80
2022/12/17 18:51:55;;;;;;;11.73;9.48;;;5.60;99.90;;;;;;5071397;28;20054;-80
2022/12/17 18:54:23;;;;;;;11.30;8.90;;;5.60;99.90;;;;;;5092821;28;20129;-80
2022/12/17 18:56:50;;;;;;;10.00;8.95;;;5.60;99.90;;;;;;5073065;28;20049;-80
2022/12/17 18:59:18;;;;;;;18.67;11.00;;;5.70;99.90;;;;;;5089099;28;20024;-80
2022/12/17 19:01:45;;;;;;;9.63;8.60;;;5.70;99.90;;;;;;5083787;28;20024;-81
2022/12/17 19:04:17;;;;;;;12.25;10.00;;;5.70;99.90;;;;;;5093242;28;20065;-80
2022/12/17 19:06:44;;;;;;;12.07;9.23;;;5.70;99.90;;;;;;5083489;28;20422;-81
2022/12/17 19:09:33;;;;;;;9.13;8.30;;;5.70;99.90;;;;;;5075968;28;20024;-81
2022/12/17 19:11:59;;;;;;;9.35;8.40;;;5.70;99.90;;;;;;5086722;28;20016;-81
2022/12/17 19:14:25;;;;;;;9.07;7.72;;;5.70;99.90;;;;;;5092344;28;20146;-81
2022/12/17 19:16:53;;;;;;;9.10;8.07;;;5.70;99.90;;;;;;5075383;28;20048;-78
2022/12/17 19:19:20;;;;;;;11.77;7.95;;;5.80;99.90;;;;;;5093032;28;20032;-81
2022/12/17 19:21:46;;;;;;;8.77;7.93;;;5.80;99.90;;;;;;5083474;28;20055;-81
2022/12/17 19:24:15;;;;;;;9.90;8.52;;;5.70;99.90;;;;;;5079141;28;20090;-81
2022/12/17 19:26:41;;;;;;;10.20;8.55;;;5.70;99.90;;;;;;5084450;28;20391;-80
2022/12/17 19:29:09;;;;;;;7.80;7.00;;;5.70;99.90;;;;;;5076349;28;20074;-80
2022/12/17 19:31:35;;;;;;;8.48;7.40;;;5.70;99.90;;;;;;5072654;28;20038;-79
2022/12/17 19:34:04;;;;;;;8.35;7.55;;;5.70;99.90;;;;;;5094819;28;20566;-81
2022/12/17 19:36:31;;;;;;;9.38;8.40;;;5.70;99.90;;;;;;5089845;28;20024;-81
2022/12/17 19:39:01;;;;;;;10.40;7.88;;;5.80;99.90;;;;;;5094956;28;20067;-81
2022/12/17 19:41:30;;;;;;;10.43;8.63;;;5.70;99.90;;;;;;5089012;28;20115;-80
2022/12/17 19:44:05;;;;;;;10.45;8.18;;;5.70;99.90;;;;;;5095053;28;20023;-80
2022/12/17 19:46:32;;;;;;;8.35;7.45;;;5.70;99.90;;;;;;5075983;28;20066;-81
2022/12/17 19:48:59;;;;;;;10.40;8.05;;;5.70;99.90;;;;;;5094330;28;20471;-80
2022/12/17 19:51:27;;;;;;;12.65;8.45;;;5.70;99.90;;;;;;5072487;28;20895;-80
2022/12/17 19:53:54;;;;;;;18.48;14.05;;;5.60;99.90;;;;;;5087797;28;20020;-79
2022/12/17 19:56:23;;;;;;;13.88;9.07;;;5.60;99.90;;;;;;5066854;28;20493;-80
2022/12/17 19:58:53;;;;;;;11.52;9.50;;;5.60;99.90;;;;;;5095506;28;20020;-80
2022/12/17 20:01:25;;;;;;;12.02;9.32;;;5.60;99.90;;;;;;5081787;28;20173;-77
2022/12/17 20:03:52;;;;;;;12.43;9.82;;;5.60;99.90;;;;;;5095483;28;20031;-80
2022/12/17 20:06:20;;;;;;;16.23;11.57;;;5.60;99.90;;;;;;5070311;28;20043;-79
2022/12/17 20:08:46;;;;;;;11.93;8.85;;;5.60;99.90;;;;;;5095715;28;20043;-78
2022/12/17 20:11:32;;;;;;;13.90;11.15;;;5.60;99.90;;;;;;5089263;28;20012;-77
2022/12/17 20:14:15;;;;;;;11.73;9.38;;;5.60;99.90;;;;;;5094538;28;20028;-79
2022/12/17 20:16:46;;;;;;;11.63;10.32;;;5.50;99.90;;;;;;5072366;28;20032;-79
2022/12/17 20:19:15;;;;;;;10.98;9.52;;;5.40;99.90;;;;;;5063260;28;20052;-77
2022/12/17 20:21:41;;;;;;;15.40;9.98;;;5.40;99.90;;;;;;5084972;28;20035;-77
2022/12/17 20:24:08;;;;;;;13.55;9.93;;;5.30;99.90;;;;;;5072197;28;20026;-77
2022/12/17 20:26:35;;;;;;;11.27;9.98;;;5.30;99.90;;;;;;5087869;28;20035;-77
2022/12/17 20:29:02;;;;;;;13.77;10.98;;;5.20;99.90;;;;;;5090730;28;20035;-77
2022/12/17 20:31:28;;;;;;;13.82;11.05;;;5.20;99.90;;;;;;5075419;28;20071;-77
2022/12/17 20:33:54;;;;;;;16.60;11.13;;;5.20;99.90;;;;;;5074807;28;20027;-77
2022/12/17 20:36:21;;;;;;;15.50;11.45;;;5.20;99.90;;;;;;5090264;28;20024;-77
2022/12/17 20:38:47;;;;;;;12.60;11.27;;;5.20;99.90;;;;;;5091747;28;20480;-77
2022/12/17 20:41:16;;;;;;;16.88;13.15;;;5.30;99.90;;;;;;5079240;28;20019;-78
2022/12/17 20:43:42;;;;;;;12.25;10.63;;;5.30;99.90;;;;;;5093540;28;20100;-78
2022/12/17 20:46:09;;;;;;;16.05;12.88;;;5.30;99.90;;;;;;5078910;28;20072;-78
2022/12/17 20:48:40;;;;;;;15.57;11.05;;;5.30;99.90;;;;;;5075724;28;20070;-77
2022/12/17 20:51:09;;;;;;;;;;;5.30;99.90;;;;;;5091908;28;20394;-77
2022/12/17 20:53:35;;;;;;;13.00;10.85;;;5.30;99.90;;;;;;5094297;28;19914;-78
2022/12/17 20:56:09;;;;;;;12.65;10.15;;;5.30;99.90;;;;;;5080972;28;20092;-77
2022/12/17 20:58:35;;;;;;;11.45;9.57;;;5.20;99.90;;;;;;5097703;28;20066;-78
2022/12/17 21:01:07;;;;;;;14.20;12.32;;;5.20;99.90;;;;;;5095823;28;20360;-77
2022/12/17 21:03:33;;;;;;;18.63;13.18;;;5.20;99.90;;;;;;5096663;28;20099;-77
2022/12/17 21:06:08;;;;;;;15.10;10.48;;;5.20;99.90;;;;;;5077387;28;20024;-77
2022/12/17 21:08:35;;;;;;;13.57;10.95;;;5.20;99.90;;;;;;5079032;28;20024;-78
2022/12/17 21:11:01;;;;;;;13.32;10.98;;;5.30;99.90;;;;;;5073902;28;20016;-77
2022/12/17 21:13:27;;;;;;;12.10;9.63;;;5.20;99.90;;;;;;5085403;28;20028;-76
2022/12/17 21:15:54;;;;;;;17.00;10.45;;;5.30;99.90;;;;;;5088943;28;20385;-77
2022/12/17 21:18:20;;;;;;;11.27;10.07;;;5.30;99.90;;;;;;5097108;28;20028;-78
2022/12/17 21:20:59;;;;;;;12.55;10.65;;;5.40;99.90;;;;;;5069627;28;20269;-77
2022/12/17 21:23:27;;;;;;;12.50;11.05;;;5.40;99.90;;;;;;5098281;28;20035;-78
2022/12/17 21:25:58;;;;;;;13.80;10.25;;;5.40;99.90;;;;;;5068508;28;20047;-78
2022/12/17 21:28:24;;;;;;;11.13;9.88;;;5.40;99.90;;;;;;5069947;28;20039;-78
2022/12/17 21:30:50;;;;;;;14.52;10.23;;;5.50;99.90;;;;;;5089938;28;20032;-77
2022/12/17 21:33:15;;;;;;;15.30;10.25;;;5.50;99.90;;;;;;5083360;28;20905;-78
2022/12/17 21:35:41;;;;;;;17.20;11.45;;;5.50;99.90;;;;;;5083087;28;20046;-78
2022/12/17 21:38:07;;;;;;;13.05;10.65;;;5.50;99.90;;;;;;5088812;28;20108;-77
2022/12/17 21:40:36;;;;;;;12.98;10.55;;;5.50;99.90;;;;;;5088556;28;20020;-77
2022/12/17 21:43:02;;;;;;;13.45;9.98;;;5.60;99.90;;;;;;5089783;28;20035;-78
2022/12/17 21:45:36;;;;;;;13.35;10.77;;;5.60;99.90;;;;;;5093124;28;20392;-77
2022/12/17 21:48:04;;;;;;;12.02;9.93;;;5.60;99.90;;;;;;5090883;28;20024;-77
2022/12/17 21:50:29;;;;;;;12.23;10.45;;;5.70;99.90;;;;;;5091814;28;20106;-78
2022/12/17 21:52:55;;;;;;;14.80;12.15;;;5.70;99.90;;;;;;5092453;28;20028;-78
2022/12/17 21:55:21;;;;;;;91.70;28.77;;;5.70;99.90;;;;;;5093759;28;20013;-78
2022/12/17 21:57:47;;;;;;;256.52;78.05;;;5.70;99.90;;;;;;5093585;28;20012;-78
2022/12/17 22:00:14;;;;;;;47.00;17.05;;;5.80;99.90;;;;;;5074381;28;20446;-77
2022/12/17 22:02:39;;;;;;;37.90;15.52;;;5.80;99.90;;;;;;5070807;28;20097;-77
2022/12/17 22:05:05;;;;;;;22.73;12.77;;;5.80;99.90;;;;;;5093096;28;20016;-77
2022/12/17 22:07:32;;;;;;;19.77;11.27;;;5.90;99.90;;;;;;5087767;28;20035;-78
2022/12/17 22:09:57;;;;;;;44.15;17.23;;;5.90;99.90;;;;;;5094373;28;21236;-77
2022/12/17 22:15:09;;;;;;;367.98;122.32;;;6.00;99.90;;;;;;5091107;28;20077;-77
2022/12/17 22:17:36;;;;;;;146.95;51.97;;;6.00;99.90;;;;;;5091885;28;20103;-78
2022/12/17 22:20:03;;;;;;;90.18;30.52;;;6.00;99.90;;;;;;5090958;28;20103;-78
2022/12/17 22:22:29;;;;;;;182.45;61.97;;;6.00;99.90;;;;;;5080503;28;20024;-77
2022/12/17 22:24:54;;;;;;;214.50;80.20;;;6.00;99.90;;;;;;5091472;28;20092;-78
2022/12/17 22:27:20;;;;;;;137.80;55.10;;;6.00;99.90;;;;;;5082898;28;20400;-78
2022/12/17 22:35:16;;;;;;;114.82;60.47;;;6.10;99.90;;;;;;5090997;28;20126;-77
2022/12/17 22:37:42;;;;;;;22.67;14.57;;;6.10;99.90;;;;;;5094798;28;20024;-76
2022/12/17 22:40:09;;;;;;;273.70;151.10;;;6.20;99.90;;;;;;5091032;28;20035;-78
2022/12/17 22:45:19;;;;;;;40.03;27.00;;;6.20;99.90;;;;;;5090110;28;20320;-78
2022/12/17 22:47:44;;;;;;;137.18;70.18;;;6.10;99.90;;;;;;5090476;28;20022;-78
2022/12/17 22:50:10;;;;;;;97.72;60.03;;;6.00;99.90;;;;;;5090501;28;20390;-77
2022/12/17 22:52:37;;;;;;;119.30;67.47;;;5.90;99.90;;;;;;5091161;28;20024;-76
2022/12/17 22:55:03;;;;;;;205.02;108.28;;;5.80;99.90;;;;;;5092955;28;20036;-77
2022/12/17 22:57:29;;;;;;;37.90;23.40;;;5.80;99.90;;;;;;5095044;28;20388;-77
2022/12/17 22:59:55;;;;;;;49.90;29.35;;;5.70;99.90;;;;;;5093614;28;20038;-76
2022/12/17 23:02:22;;;;;;;190.43;107.60;;;5.60;99.90;;;;;;5086760;28;20408;-77
2022/12/17 23:04:48;;;;;;;49.42;31.02;;;5.50;99.90;;;;;;5092535;28;20112;-76
2022/12/17 23:07:14;;;;;;;29.35;20.00;;;5.40;99.90;;;;;;5077372;28;20016;-76
2022/12/17 23:09:39;;;;;;;38.97;23.00;;;5.30;99.90;;;;;;5093616;28;20047;-77
2022/12/17 23:13:06;;;;;;;30.08;19.13;;;5.20;99.90;;;;;;5084359;28;20054;-77
2022/12/17 23:15:01;;;;;;;16.55;12.85;;;5.10;99.90;;;;;;5073928;28;20043;-76
2022/12/17 23:17:27;;;;;;;14.85;11.38;;;5.00;99.90;;;;;;5071619;28;20020;-76
2022/12/17 23:19:52;;;;;;;14.18;10.85;;;4.90;99.90;;;;;;5091025;28;20059;-77
2022/12/17 23:22:18;;;;;;;13.73;11.57;;;4.80;99.90;;;;;;5067673;28;20038;-77
2022/12/17 23:24:44;;;;;;;15.68;11.90;;;4.80;99.90;;;;;;5077904;28;20047;-77
2022/12/17 23:27:10;;;;;;;18.88;12.68;;;4.80;99.90;;;;;;5083484;28;20119;-77
2022/12/17 23:29:35;;;;;;;17.60;13.32;;;4.90;99.90;;;;;;5089419;28;20117;-76
2022/12/17 23:32:01;;;;;;;27.35;18.17;;;5.00;99.90;;;;;;5085425;28;20381;-77
2022/12/17 23:34:27;;;;;;;18.83;14.43;;;5.00;99.90;;;;;;5072759;28;20020;-76
2022/12/17 23:36:53;;;;;;;21.50;14.65;;;5.10;99.90;;;;;;5067158;28;20029;-76
2022/12/17 23:39:19;;;;;;;18.80;15.02;;;5.20;99.90;;;;;;5092069;28;20024;-76
2022/12/17 23:41:45;;;;;;;29.38;19.67;;;5.30;99.90;;;;;;5068864;28;20028;-76
2022/12/17 23:44:10;;;;;;;42.85;29.83;;;5.30;99.90;;;;;;5074411;28;20046;-76
2022/12/17 23:46:36;;;;;;;26.45;19.88;;;5.40;99.90;;;;;;5069294;28;20032;-77
2022/12/17 23:49:04;;;;;;;34.58;25.15;;;5.40;99.90;;;;;;5090923;28;20046;-76
2022/12/17 23:51:31;;;;;;;100.38;67.80;;;5.40;99.90;;;;;;5068435;28;20373;-76
2022/12/17 23:54:00;;;;;;;25.55;18.92;;;5.50;99.90;;;;;;5092952;28;20019;-77
2022/12/17 23:56:27;;;;;;;25.00;17.92;;;5.50;99.90;;;;;;5074698;28;20033;-77
2022/12/17 23:58:56;;;;;;;43.63;32.85;;;5.50;99.90;;;;;;5099481;28;20021;-77
